sensor_id;sensor_type;location;lat;lon;timestamp;P1;durP1;ratioP1;P2;durP2;ratioP2
36659;SDS011;22654;51.054;3.654;2022-11-15T00:01:51;47.50;;;31.23;;
36659;SDS011;22654;51.054;3.654;2022-11-15T00:04:36;43.63;;;32.05;;
36659;SDS011;22654;51.054;3.654;2022-11-15T00:07:20;44.58;;;31.52;;
36659;SDS011;22654;51.054;3.654;2022-11-15T00:10:05;43.28;;;31.50;;
36659;SDS011;22654;51.054;3.654;2022-11-15T00:12:50;39.83;;;29.20;;
36659;SDS011;22654;51.054;3.654;2022-11-15T00:15:34;39.22;;;27.73;;
36659;SDS011;22654;51.054;3.654;2022-11-15T00:18:19;35.63;;;25.48;;
36659;SDS011;22654;51.054;3.654;2022-11-15T00:21:05;34.13;;;27.30;;
36659;SDS011;22654;51.054;3.654;2022-11-15T00:23:50;31.38;;;24.17;;
36659;SDS011;22654;51.054;3.654;2022-11-15T00:26:34;36.40;;;25.10;;
36659;SDS011;22654;51.054;3.654;2022-11-15T00:29:18;37.70;;;25.13;;
36659;SDS011;22654;51.054;3.654;2022-11-15T00:32:02;31.45;;;24.65;;
36659;SDS011;22654;51.054;3.654;2022-11-15T00:34:47;34.45;;;23.58;;
36659;SDS011;22654;51.054;3.654;2022-11-15T00:37:31;27.83;;;23.08;;
36659;SDS011;22654;51.054;3.654;2022-11-15T00:40:15;32.63;;;24.90;;
36659;SDS011;22654;51.054;3.654;2022-11-15T00:42:59;31.48;;;23.10;;
36659;SDS011;22654;51.054;3.654;2022-11-15T00:45:44;33.10;;;24.02;;
36659;SDS011;22654;51.054;3.654;2022-11-15T00:48:28;26.70;;;22.65;;
36659;SDS011;22654;51.054;3.654;2022-11-15T00:51:15;27.55;;;21.80;;
36659;SDS011;22654;51.054;3.654;2022-11-15T00:54:02;27.60;;;23.83;;
36659;SDS011;22654;51.054;3.654;2022-11-15T00:56:50;28.02;;;23.05;;
36659;SDS011;22654;51.054;3.654;2022-11-15T00:59:34;34.38;;;23.48;;
36659;SDS011;22654;51.054;3.654;2022-11-15T01:02:18;31.20;;;22.52;;
36659;SDS011;22654;51.054;3.654;2022-11-15T01:05:03;30.63;;;22.23;;
36659;SDS011;22654;51.054;3.654;2022-11-15T01:07:51;23.42;;;20.27;;
36659;SDS011;22654;51.054;3.654;2022-11-15T01:10:36;24.25;;;19.75;;
36659;SDS011;22654;51.054;3.654;2022-11-15T01:13:20;25.27;;;19.17;;
36659;SDS011;22654;51.054;3.654;2022-11-15T01:16:17;23.75;;;18.77;;
36659;SDS011;22654;51.054;3.654;2022-11-15T01:19:02;29.08;;;21.08;;
36659;SDS011;22654;51.054;3.654;2022-11-15T01:21:50;29.67;;;21.08;;
36659;SDS011;22654;51.054;3.654;2022-11-15T01:24:34;29.70;;;21.40;;
36659;SDS011;22654;51.054;3.654;2022-11-15T01:27:19;29.45;;;21.60;;
36659;SDS011;22654;51.054;3.654;2022-11-15T01:30:04;23.95;;;20.02;;
36659;SDS011;22654;51.054;3.654;2022-11-15T01:32:48;21.52;;;19.13;;
36659;SDS011;22654;51.054;3.654;2022-11-15T01:35:33;24.92;;;20.35;;
36659;SDS011;22654;51.054;3.654;2022-11-15T01:38:22;26.35;;;20.65;;
36659;SDS011;22654;51.054;3.654;2022-11-15T01:41:11;26.55;;;20.27;;
36659;SDS011;22654;51.054;3.654;2022-11-15T01:47:18;26.15;;;20.17;;
36659;SDS011;22654;51.054;3.654;2022-11-15T01:50:16;26.00;;;18.45;;
36659;SDS011;22654;51.054;3.654;2022-11-15T01:53:04;23.83;;;17.67;;
36659;SDS011;22654;51.054;3.654;2022-11-15T01:55:49;27.42;;;19.02;;
36659;SDS011;22654;51.054;3.654;2022-11-15T01:58:33;26.73;;;18.27;;
36659;SDS011;22654;51.054;3.654;2022-11-15T02:01:18;24.52;;;17.42;;
36659;SDS011;22654;51.054;3.654;2022-11-15T02:04:09;20.73;;;16.83;;
36659;SDS011;22654;51.054;3.654;2022-11-15T02:07:01;25.10;;;16.45;;
36659;SDS011;22654;51.054;3.654;2022-11-15T02:09:48;23.83;;;16.85;;
36659;SDS011;22654;51.054;3.654;2022-11-15T02:12:34;20.60;;;15.02;;
36659;SDS011;22654;51.054;3.654;2022-11-15T02:15:19;23.27;;;15.02;;
36659;SDS011;22654;51.054;3.654;2022-11-15T02:33:28;17.33;;;13.27;;
36659;SDS011;22654;51.054;3.654;2022-11-15T02:36:33;18.98;;;12.27;;
36659;SDS011;22654;51.054;3.654;2022-11-15T02:42:57;20.60;;;12.57;;
36659;SDS011;22654;51.054;3.654;2022-11-15T02:46:18;17.25;;;12.02;;
36659;SDS011;22654;51.054;3.654;2022-11-15T02:49:28;14.45;;;11.65;;
36659;SDS011;22654;51.054;3.654;2022-11-15T02:52:16;19.40;;;12.18;;
36659;SDS011;22654;51.054;3.654;2022-11-15T02:55:02;17.85;;;11.35;;
36659;SDS011;22654;51.054;3.654;2022-11-15T02:57:55;20.17;;;10.63;;
36659;SDS011;22654;51.054;3.654;2022-11-15T03:01:14;19.15;;;10.93;;
36659;SDS011;22654;51.054;3.654;2022-11-15T03:07:39;14.15;;;9.77;;
36659;SDS011;22654;51.054;3.654;2022-11-15T03:10:17;17.90;;;9.35;;
36659;SDS011;22654;51.054;3.654;2022-11-15T03:18:52;13.07;;;7.75;;
36659;SDS011;22654;51.054;3.654;2022-11-15T03:21:57;15.75;;;7.95;;
36659;SDS011;22654;51.054;3.654;2022-11-15T03:24:44;10.23;;;6.80;;
36659;SDS011;22654;51.054;3.654;2022-11-15T03:27:33;10.75;;;6.40;;
36659;SDS011;22654;51.054;3.654;2022-11-15T03:30:21;13.88;;;6.95;;
36659;SDS011;22654;51.054;3.654;2022-11-15T03:33:06;18.40;;;7.35;;
36659;SDS011;22654;51.054;3.654;2022-11-15T03:35:52;11.95;;;6.85;;
36659;SDS011;22654;51.054;3.654;2022-11-15T03:38:37;11.25;;;6.88;;
36659;SDS011;22654;51.054;3.654;2022-11-15T03:41:29;9.30;;;6.72;;
36659;SDS011;22654;51.054;3.654;2022-11-15T03:44:57;14.35;;;6.78;;
36659;SDS011;22654;51.054;3.654;2022-11-15T03:47:53;10.98;;;6.80;;
36659;SDS011;22654;51.054;3.654;2022-11-15T03:50:45;12.32;;;7.78;;
36659;SDS011;22654;51.054;3.654;2022-11-15T03:53:30;17.70;;;7.72;;
36659;SDS011;22654;51.054;3.654;2022-11-15T03:56:15;15.35;;;8.88;;
36659;SDS011;22654;51.054;3.654;2022-11-15T03:58:59;9.88;;;6.85;;
36659;SDS011;22654;51.054;3.654;2022-11-15T04:01:44;13.63;;;7.80;;
36659;SDS011;22654;51.054;3.654;2022-11-15T04:04:29;11.57;;;6.60;;
36659;SDS011;22654;51.054;3.654;2022-11-15T04:07:13;16.67;;;7.15;;
36659;SDS011;22654;51.054;3.654;2022-11-15T04:09:58;10.05;;;8.07;;
36659;SDS011;22654;51.054;3.654;2022-11-15T04:12:50;10.77;;;7.30;;
36659;SDS011;22654;51.054;3.654;2022-11-15T04:15:35;12.00;;;7.90;;
36659;SDS011;22654;51.054;3.654;2022-11-15T04:18:19;16.85;;;7.38;;
36659;SDS011;22654;51.054;3.654;2022-11-15T04:21:09;12.00;;;8.00;;
36659;SDS011;22654;51.054;3.654;2022-11-15T04:24:13;13.95;;;8.77;;
36659;SDS011;22654;51.054;3.654;2022-11-15T04:26:57;15.75;;;8.85;;
36659;SDS011;22654;51.054;3.654;2022-11-15T04:29:42;17.35;;;9.27;;
36659;SDS011;22654;51.054;3.654;2022-11-15T04:32:26;12.77;;;8.43;;
36659;SDS011;22654;51.054;3.654;2022-11-15T04:35:10;18.05;;;9.20;;
36659;SDS011;22654;51.054;3.654;2022-11-15T04:37:55;17.52;;;8.18;;
36659;SDS011;22654;51.054;3.654;2022-11-15T04:40:40;18.38;;;8.90;;
36659;SDS011;22654;51.054;3.654;2022-11-15T04:43:24;13.88;;;9.40;;
36659;SDS011;22654;51.054;3.654;2022-11-15T04:46:08;12.63;;;8.93;;
36659;SDS011;22654;51.054;3.654;2022-11-15T04:48:53;13.80;;;9.07;;
36659;SDS011;22654;51.054;3.654;2022-11-15T04:51:38;15.15;;;9.65;;
36659;SDS011;22654;51.054;3.654;2022-11-15T04:54:22;14.73;;;8.60;;
36659;SDS011;22654;51.054;3.654;2022-11-15T04:57:07;15.90;;;7.70;;
36659;SDS011;22654;51.054;3.654;2022-11-15T04:59:51;16.60;;;7.60;;
36659;SDS011;22654;51.054;3.654;2022-11-15T05:02:36;14.05;;;7.65;;
36659;SDS011;22654;51.054;3.654;2022-11-15T05:05:39;10.40;;;6.43;;
36659;SDS011;22654;51.054;3.654;2022-11-15T05:08:24;13.23;;;7.10;;
36659;SDS011;22654;51.054;3.654;2022-11-15T05:11:08;12.90;;;7.50;;
36659;SDS011;22654;51.054;3.654;2022-11-15T05:13:52;13.07;;;6.47;;
36659;SDS011;22654;51.054;3.654;2022-11-15T05:16:37;16.50;;;8.13;;
36659;SDS011;22654;51.054;3.654;2022-11-15T05:19:22;14.80;;;7.68;;
36659;SDS011;22654;51.054;3.654;2022-11-15T05:22:07;17.63;;;8.35;;
36659;SDS011;22654;51.054;3.654;2022-11-15T05:24:54;15.63;;;8.35;;
36659;SDS011;22654;51.054;3.654;2022-11-15T05:27:38;15.00;;;7.55;;
36659;SDS011;22654;51.054;3.654;2022-11-15T05:30:23;14.35;;;8.25;;
36659;SDS011;22654;51.054;3.654;2022-11-15T05:33:08;14.70;;;7.22;;
36659;SDS011;22654;51.054;3.654;2022-11-15T05:36:00;14.13;;;7.32;;
36659;SDS011;22654;51.054;3.654;2022-11-15T05:38:55;17.13;;;8.55;;
36659;SDS011;22654;51.054;3.654;2022-11-15T05:41:46;16.80;;;7.63;;
36659;SDS011;22654;51.054;3.654;2022-11-15T05:44:38;19.17;;;8.05;;
36659;SDS011;22654;51.054;3.654;2022-11-15T05:47:25;14.88;;;7.70;;
36659;SDS011;22654;51.054;3.654;2022-11-15T05:50:12;13.40;;;7.93;;
36659;SDS011;22654;51.054;3.654;2022-11-15T05:53:00;12.57;;;7.68;;
36659;SDS011;22654;51.054;3.654;2022-11-15T05:55:45;15.10;;;8.40;;
36659;SDS011;22654;51.054;3.654;2022-11-15T05:58:34;15.13;;;8.13;;
36659;SDS011;22654;51.054;3.654;2022-11-15T06:01:19;18.95;;;9.80;;
36659;SDS011;22654;51.054;3.654;2022-11-15T06:04:04;13.15;;;8.82;;
36659;SDS011;22654;51.054;3.654;2022-11-15T06:06:49;16.40;;;9.02;;
36659;SDS011;22654;51.054;3.654;2022-11-15T06:09:33;15.95;;;8.57;;
36659;SDS011;22654;51.054;3.654;2022-11-15T06:12:18;16.58;;;9.25;;
36659;SDS011;22654;51.054;3.654;2022-11-15T06:15:02;14.75;;;8.32;;
36659;SDS011;22654;51.054;3.654;2022-11-15T06:17:47;14.40;;;10.32;;
36659;SDS011;22654;51.054;3.654;2022-11-15T06:20:31;16.83;;;9.43;;
36659;SDS011;22654;51.054;3.654;2022-11-15T06:23:15;13.27;;;9.68;;
36659;SDS011;22654;51.054;3.654;2022-11-15T06:26:01;15.63;;;9.55;;
36659;SDS011;22654;51.054;3.654;2022-11-15T06:28:46;13.02;;;9.52;;
36659;SDS011;22654;51.054;3.654;2022-11-15T06:31:31;13.65;;;8.80;;
36659;SDS011;22654;51.054;3.654;2022-11-15T06:34:15;12.95;;;9.82;;
36659;SDS011;22654;51.054;3.654;2022-11-15T06:36:59;15.70;;;10.18;;
36659;SDS011;22654;51.054;3.654;2022-11-15T06:39:43;15.45;;;9.82;;
36659;SDS011;22654;51.054;3.654;2022-11-15T06:42:28;14.77;;;10.48;;
36659;SDS011;22654;51.054;3.654;2022-11-15T06:45:12;14.13;;;10.52;;
36659;SDS011;22654;51.054;3.654;2022-11-15T06:47:57;13.85;;;11.10;;
36659;SDS011;22654;51.054;3.654;2022-11-15T06:50:42;16.55;;;11.02;;
36659;SDS011;22654;51.054;3.654;2022-11-15T06:53:26;18.08;;;11.63;;
36659;SDS011;22654;51.054;3.654;2022-11-15T06:56:11;17.55;;;10.68;;
36659;SDS011;22654;51.054;3.654;2022-11-15T06:58:56;17.95;;;11.90;;
36659;SDS011;22654;51.054;3.654;2022-11-15T07:01:40;15.02;;;11.63;;
36659;SDS011;22654;51.054;3.654;2022-11-15T07:04:25;18.83;;;13.35;;
36659;SDS011;22654;51.054;3.654;2022-11-15T07:07:09;19.70;;;11.45;;
36659;SDS011;22654;51.054;3.654;2022-11-15T07:09:53;15.45;;;12.10;;
36659;SDS011;22654;51.054;3.654;2022-11-15T07:12:38;15.27;;;10.60;;
36659;SDS011;22654;51.054;3.654;2022-11-15T07:15:23;15.70;;;10.88;;
36659;SDS011;22654;51.054;3.654;2022-11-15T07:18:09;17.75;;;11.35;;
36659;SDS011;22654;51.054;3.654;2022-11-15T07:20:53;13.35;;;10.52;;
36659;SDS011;22654;51.054;3.654;2022-11-15T07:23:38;14.55;;;10.02;;
36659;SDS011;22654;51.054;3.654;2022-11-15T07:26:23;14.70;;;9.65;;
36659;SDS011;22654;51.054;3.654;2022-11-15T07:29:07;12.63;;;9.80;;
36659;SDS011;22654;51.054;3.654;2022-11-15T07:31:51;11.43;;;9.73;;
36659;SDS011;22654;51.054;3.654;2022-11-15T07:34:35;14.48;;;12.00;;
36659;SDS011;22654;51.054;3.654;2022-11-15T07:37:19;11.10;;;8.63;;
36659;SDS011;22654;51.054;3.654;2022-11-15T07:40:04;12.82;;;9.68;;
36659;SDS011;22654;51.054;3.654;2022-11-15T07:42:49;10.45;;;8.43;;
36659;SDS011;22654;51.054;3.654;2022-11-15T07:45:40;12.07;;;8.57;;
36659;SDS011;22654;51.054;3.654;2022-11-15T07:48:28;8.70;;;7.80;;
36659;SDS011;22654;51.054;3.654;2022-11-15T07:51:13;10.10;;;7.80;;
36659;SDS011;22654;51.054;3.654;2022-11-15T07:53:59;8.88;;;7.43;;
36659;SDS011;22654;51.054;3.654;2022-11-15T07:56:44;7.97;;;6.70;;
36659;SDS011;22654;51.054;3.654;2022-11-15T07:59:28;8.05;;;6.18;;
36659;SDS011;22654;51.054;3.654;2022-11-15T08:02:12;10.88;;;6.40;;
36659;SDS011;22654;51.054;3.654;2022-11-15T08:04:56;8.98;;;6.68;;
36659;SDS011;22654;51.054;3.654;2022-11-15T08:07:41;9.05;;;5.68;;
36659;SDS011;22654;51.054;3.654;2022-11-15T08:10:26;10.63;;;6.30;;
36659;SDS011;22654;51.054;3.654;2022-11-15T08:13:11;7.63;;;5.43;;
36659;SDS011;22654;51.054;3.654;2022-11-15T08:16:00;13.07;;;6.05;;
36659;SDS011;22654;51.054;3.654;2022-11-15T08:18:45;13.15;;;5.68;;
36659;SDS011;22654;51.054;3.654;2022-11-15T08:21:29;6.88;;;5.13;;
36659;SDS011;22654;51.054;3.654;2022-11-15T08:24:14;8.27;;;4.95;;
36659;SDS011;22654;51.054;3.654;2022-11-15T08:26:59;11.43;;;5.05;;
36659;SDS011;22654;51.054;3.654;2022-11-15T08:29:44;19.23;;;5.88;;
36659;SDS011;22654;51.054;3.654;2022-11-15T08:32:30;9.40;;;4.95;;
36659;SDS011;22654;51.054;3.654;2022-11-15T08:35:15;7.10;;;4.70;;
36659;SDS011;22654;51.054;3.654;2022-11-15T08:38:00;6.60;;;4.85;;
36659;SDS011;22654;51.054;3.654;2022-11-15T08:40:44;7.15;;;4.50;;
36659;SDS011;22654;51.054;3.654;2022-11-15T08:43:28;9.00;;;4.47;;
36659;SDS011;22654;51.054;3.654;2022-11-15T08:46:13;10.18;;;4.18;;
36659;SDS011;22654;51.054;3.654;2022-11-15T08:48:57;7.82;;;4.57;;
36659;SDS011;22654;51.054;3.654;2022-11-15T08:51:41;9.45;;;4.60;;
36659;SDS011;22654;51.054;3.654;2022-11-15T08:54:26;7.93;;;4.72;;
36659;SDS011;22654;51.054;3.654;2022-11-15T08:57:10;6.72;;;3.95;;
36659;SDS011;22654;51.054;3.654;2022-11-15T08:59:55;5.75;;;3.45;;
36659;SDS011;22654;51.054;3.654;2022-11-15T09:02:39;6.82;;;3.70;;
36659;SDS011;22654;51.054;3.654;2022-11-15T09:05:24;8.85;;;3.88;;
36659;SDS011;22654;51.054;3.654;2022-11-15T09:08:09;11.77;;;3.80;;
36659;SDS011;22654;51.054;3.654;2022-11-15T09:10:55;5.32;;;2.75;;
36659;SDS011;22654;51.054;3.654;2022-11-15T09:13:39;7.68;;;3.40;;
36659;SDS011;22654;51.054;3.654;2022-11-15T09:16:24;8.10;;;3.13;;
36659;SDS011;22654;51.054;3.654;2022-11-15T09:19:08;13.23;;;3.70;;
36659;SDS011;22654;51.054;3.654;2022-11-15T09:21:52;7.22;;;3.28;;
36659;SDS011;22654;51.054;3.654;2022-11-15T09:24:37;9.95;;;4.40;;
36659;SDS011;22654;51.054;3.654;2022-11-15T09:27:22;7.97;;;3.22;;
36659;SDS011;22654;51.054;3.654;2022-11-15T09:30:06;10.32;;;2.80;;
36659;SDS011;22654;51.054;3.654;2022-11-15T09:32:51;6.00;;;2.42;;
36659;SDS011;22654;51.054;3.654;2022-11-15T09:35:36;10.85;;;2.30;;
36659;SDS011;22654;51.054;3.654;2022-11-15T09:38:20;8.05;;;2.47;;
36659;SDS011;22654;51.054;3.654;2022-11-15T09:44:04;7.07;;;2.60;;
36659;SDS011;22654;51.054;3.654;2022-11-15T09:50:15;8.85;;;2.20;;
36659;SDS011;22654;51.054;3.654;2022-11-15T09:52:51;10.05;;;2.47;;
36659;SDS011;22654;51.054;3.654;2022-11-15T09:55:28;11.60;;;2.50;;
36659;SDS011;22654;51.054;3.654;2022-11-15T09:58:10;5.18;;;2.33;;
36659;SDS011;22654;51.054;3.654;2022-11-15T10:00:49;8.57;;;2.67;;
36659;SDS011;22654;51.054;3.654;2022-11-15T10:03:29;6.20;;;2.53;;
36659;SDS011;22654;51.054;3.654;2022-11-15T10:06:00;12.73;;;3.50;;
36659;SDS011;22654;51.054;3.654;2022-11-15T10:08:54;7.78;;;2.10;;
36659;SDS011;22654;51.054;3.654;2022-11-15T10:11:34;6.72;;;2.13;;
36659;SDS011;22654;51.054;3.654;2022-11-15T10:14:02;5.30;;;2.42;;
36659;SDS011;22654;51.054;3.654;2022-11-15T10:17:17;7.13;;;2.33;;
36659;SDS011;22654;51.054;3.654;2022-11-15T10:22:46;5.47;;;2.38;;
36659;SDS011;22654;51.054;3.654;2022-11-15T10:25:20;8.82;;;2.38;;
36659;SDS011;22654;51.054;3.654;2022-11-15T10:28:30;9.40;;;2.35;;
36659;SDS011;22654;51.054;3.654;2022-11-15T10:30:43;8.35;;;2.45;;
36659;SDS011;22654;51.054;3.654;2022-11-15T10:38:49;7.72;;;2.17;;
36659;SDS011;22654;51.054;3.654;2022-11-15T10:43:44;7.90;;;2.53;;
36659;SDS011;22654;51.054;3.654;2022-11-15T10:46:18;2.80;;;1.55;;
36659;SDS011;22654;51.054;3.654;2022-11-15T10:48:46;5.70;;;2.10;;
36659;SDS011;22654;51.054;3.654;2022-11-15T10:51:25;10.18;;;2.33;;
36659;SDS011;22654;51.054;3.654;2022-11-15T10:56:24;5.68;;;1.95;;
36659;SDS011;22654;51.054;3.654;2022-11-15T10:58:58;8.43;;;2.08;;
36659;SDS011;22654;51.054;3.654;2022-11-15T11:01:24;11.70;;;2.28;;
36659;SDS011;22654;51.054;3.654;2022-11-15T11:06:28;9.77;;;3.42;;
36659;SDS011;22654;51.054;3.654;2022-11-15T11:09:02;7.15;;;1.85;;
36659;SDS011;22654;51.054;3.654;2022-11-15T11:11:47;7.57;;;1.90;;
36659;SDS011;22654;51.054;3.654;2022-11-15T11:14:24;9.32;;;2.92;;
36659;SDS011;22654;51.054;3.654;2022-11-15T11:33:29;6.55;;;2.00;;
36659;SDS011;22654;51.054;3.654;2022-11-15T11:44:48;5.82;;;1.70;;
36659;SDS011;22654;51.054;3.654;2022-11-15T11:50:00;7.88;;;2.60;;
36659;SDS011;22654;51.054;3.654;2022-11-15T11:55:18;8.85;;;2.53;;
36659;SDS011;22654;51.054;3.654;2022-11-15T11:57:51;4.95;;;1.90;;
36659;SDS011;22654;51.054;3.654;2022-11-15T12:00:26;6.10;;;2.10;;
36659;SDS011;22654;51.054;3.654;2022-11-15T12:03:00;7.63;;;2.05;;
36659;SDS011;22654;51.054;3.654;2022-11-15T12:11:38;3.72;;;1.70;;
36659;SDS011;22654;51.054;3.654;2022-11-15T12:14:12;9.95;;;2.20;;
36659;SDS011;22654;51.054;3.654;2022-11-15T12:17:09;4.85;;;1.70;;
36659;SDS011;22654;51.054;3.654;2022-11-15T12:19:37;5.57;;;2.53;;
36659;SDS011;22654;51.054;3.654;2022-11-15T12:22:04;6.50;;;1.75;;
36659;SDS011;22654;51.054;3.654;2022-11-15T12:27:31;4.35;;;2.15;;
36659;SDS011;22654;51.054;3.654;2022-11-15T12:30:19;6.20;;;2.20;;
36659;SDS011;22654;51.054;3.654;2022-11-15T12:32:57;9.10;;;2.47;;
36659;SDS011;22654;51.054;3.654;2022-11-15T12:35:37;8.48;;;3.03;;
36659;SDS011;22654;51.054;3.654;2022-11-15T12:38:09;3.75;;;2.20;;
36659;SDS011;22654;51.054;3.654;2022-11-15T12:40:37;3.92;;;1.95;;
36659;SDS011;22654;51.054;3.654;2022-11-15T12:43:07;8.50;;;1.83;;
36659;SDS011;22654;51.054;3.654;2022-11-15T12:46:01;4.22;;;1.75;;
36659;SDS011;22654;51.054;3.654;2022-11-15T12:48:51;5.25;;;1.88;;
36659;SDS011;22654;51.054;3.654;2022-11-15T12:51:22;6.87;;;1.90;;
36659;SDS011;22654;51.054;3.654;2022-11-15T12:59:52;4.65;;;2.00;;
36659;SDS011;22654;51.054;3.654;2022-11-15T13:20:17;4.55;;;1.65;;
36659;SDS011;22654;51.054;3.654;2022-11-15T13:28:24;3.63;;;2.28;;
36659;SDS011;22654;51.054;3.654;2022-11-15T13:30:54;3.50;;;1.90;;
36659;SDS011;22654;51.054;3.654;2022-11-15T13:33:22;5.82;;;1.90;;
36659;SDS011;22654;51.054;3.654;2022-11-15T13:36:08;2.72;;;1.42;;
36659;SDS011;22654;51.054;3.654;2022-11-15T13:38:55;5.00;;;1.45;;
36659;SDS011;22654;51.054;3.654;2022-11-15T13:41:27;3.92;;;1.65;;
36659;SDS011;22654;51.054;3.654;2022-11-15T13:44:32;3.17;;;1.80;;
36659;SDS011;22654;51.054;3.654;2022-11-15T13:47:05;5.82;;;1.67;;
36659;SDS011;22654;51.054;3.654;2022-11-15T13:49:32;2.80;;;1.73;;
36659;SDS011;22654;51.054;3.654;2022-11-15T13:51:59;4.57;;;1.55;;
36659;SDS011;22654;51.054;3.654;2022-11-15T13:54:33;6.55;;;2.20;;
36659;SDS011;22654;51.054;3.654;2022-11-15T14:02:19;3.90;;;2.25;;
36659;SDS011;22654;51.054;3.654;2022-11-15T14:04:53;2.38;;;1.30;;
36659;SDS011;22654;51.054;3.654;2022-11-15T14:07:39;3.92;;;1.70;;
36659;SDS011;22654;51.054;3.654;2022-11-15T14:10:25;2.08;;;1.70;;
36659;SDS011;22654;51.054;3.654;2022-11-15T14:12:51;2.35;;;1.70;;
36659;SDS011;22654;51.054;3.654;2022-11-15T14:15:39;4.85;;;2.20;;
36659;SDS011;22654;51.054;3.654;2022-11-15T14:18:04;2.92;;;2.20;;
36659;SDS011;22654;51.054;3.654;2022-11-15T14:23:04;3.10;;;2.40;;
36659;SDS011;22654;51.054;3.654;2022-11-15T14:25:51;4.13;;;2.30;;
36659;SDS011;22654;51.054;3.654;2022-11-15T14:28:29;3.88;;;2.05;;
36659;SDS011;22654;51.054;3.654;2022-11-15T14:30:58;6.63;;;2.35;;
36659;SDS011;22654;51.054;3.654;2022-11-15T14:36:20;4.32;;;2.20;;
36659;SDS011;22654;51.054;3.654;2022-11-15T14:38:46;8.68;;;2.47;;
36659;SDS011;22654;51.054;3.654;2022-11-15T14:41:20;5.75;;;2.35;;
36659;SDS011;22654;51.054;3.654;2022-11-15T14:43:49;3.60;;;2.35;;
36659;SDS011;22654;51.054;3.654;2022-11-15T14:46:15;2.55;;;2.25;;
36659;SDS011;22654;51.054;3.654;2022-11-15T14:48:41;3.95;;;2.45;;
36659;SDS011;22654;51.054;3.654;2022-11-15T14:51:14;4.25;;;3.05;;
36659;SDS011;22654;51.054;3.654;2022-11-15T14:53:42;8.23;;;2.80;;
36659;SDS011;22654;51.054;3.654;2022-11-15T14:56:09;4.97;;;3.00;;
36659;SDS011;22654;51.054;3.654;2022-11-15T14:58:37;4.30;;;3.00;;
36659;SDS011;22654;51.054;3.654;2022-11-15T15:01:09;6.60;;;3.47;;
36659;SDS011;22654;51.054;3.654;2022-11-15T15:03:42;5.65;;;4.07;;
36659;SDS011;22654;51.054;3.654;2022-11-15T15:06:09;6.40;;;3.58;;
36659;SDS011;22654;51.054;3.654;2022-11-15T15:08:38;4.38;;;3.63;;
36659;SDS011;22654;51.054;3.654;2022-11-15T15:11:07;4.30;;;3.78;;
36659;SDS011;22654;51.054;3.654;2022-11-15T15:13:39;5.90;;;3.90;;
36659;SDS011;22654;51.054;3.654;2022-11-15T15:16:05;6.35;;;3.80;;
36659;SDS011;22654;51.054;3.654;2022-11-15T15:18:34;8.27;;;4.47;;
36659;SDS011;22654;51.054;3.654;2022-11-15T15:21:00;8.00;;;4.32;;
36659;SDS011;22654;51.054;3.654;2022-11-15T15:23:32;9.70;;;4.10;;
36659;SDS011;22654;51.054;3.654;2022-11-15T15:26:00;13.88;;;5.00;;
36659;SDS011;22654;51.054;3.654;2022-11-15T15:28:26;6.78;;;4.80;;
36659;SDS011;22654;51.054;3.654;2022-11-15T15:30:52;7.25;;;4.80;;
36659;SDS011;22654;51.054;3.654;2022-11-15T15:33:18;6.50;;;5.00;;
36659;SDS011;22654;51.054;3.654;2022-11-15T15:35:44;12.05;;;6.53;;
36659;SDS011;22654;51.054;3.654;2022-11-15T15:38:10;7.20;;;5.28;;
36659;SDS011;22654;51.054;3.654;2022-11-15T15:40:37;9.93;;;5.57;;
36659;SDS011;22654;51.054;3.654;2022-11-15T15:43:03;6.38;;;5.38;;
36659;SDS011;22654;51.054;3.654;2022-11-15T15:45:29;10.25;;;5.55;;
36659;SDS011;22654;51.054;3.654;2022-11-15T15:47:57;8.15;;;5.82;;
36659;SDS011;22654;51.054;3.654;2022-11-15T15:52:55;8.45;;;6.43;;
36659;SDS011;22654;51.054;3.654;2022-11-15T15:55:22;8.32;;;5.97;;
36659;SDS011;22654;51.054;3.654;2022-11-15T15:57:49;7.80;;;6.00;;
36659;SDS011;22654;51.054;3.654;2022-11-15T16:00:15;8.30;;;5.55;;
36659;SDS011;22654;51.054;3.654;2022-11-15T16:02:43;6.55;;;5.85;;
36659;SDS011;22654;51.054;3.654;2022-11-15T16:05:09;7.25;;;6.32;;
36659;SDS011;22654;51.054;3.654;2022-11-15T16:07:36;7.55;;;6.43;;
36659;SDS011;22654;51.054;3.654;2022-11-15T16:10:04;6.68;;;5.13;;
36659;SDS011;22654;51.054;3.654;2022-11-15T16:12:39;7.22;;;4.95;;
36659;SDS011;22654;51.054;3.654;2022-11-15T16:15:05;6.97;;;5.93;;
36659;SDS011;22654;51.054;3.654;2022-11-15T16:17:33;6.47;;;5.18;;
36659;SDS011;22654;51.054;3.654;2022-11-15T16:20:03;5.82;;;5.25;;
36659;SDS011;22654;51.054;3.654;2022-11-15T16:22:29;6.72;;;5.32;;
36659;SDS011;22654;51.054;3.654;2022-11-15T16:24:56;5.80;;;4.68;;
36659;SDS011;22654;51.054;3.654;2022-11-15T16:27:21;7.72;;;5.00;;
36659;SDS011;22654;51.054;3.654;2022-11-15T16:29:48;7.05;;;5.00;;
36659;SDS011;22654;51.054;3.654;2022-11-15T16:32:15;6.38;;;5.10;;
36659;SDS011;22654;51.054;3.654;2022-11-15T16:34:41;4.45;;;4.03;;
36659;SDS011;22654;51.054;3.654;2022-11-15T16:37:20;5.25;;;4.75;;
36659;SDS011;22654;51.054;3.654;2022-11-15T16:39:48;5.57;;;4.30;;
36659;SDS011;22654;51.054;3.654;2022-11-15T16:42:13;4.80;;;4.32;;
36659;SDS011;22654;51.054;3.654;2022-11-15T16:44:39;8.23;;;4.47;;
36659;SDS011;22654;51.054;3.654;2022-11-15T16:47:10;7.68;;;4.28;;
36659;SDS011;22654;51.054;3.654;2022-11-15T16:49:46;7.20;;;3.90;;
36659;SDS011;22654;51.054;3.654;2022-11-15T16:52:12;4.97;;;4.40;;
36659;SDS011;22654;51.054;3.654;2022-11-15T16:54:38;6.70;;;4.68;;
36659;SDS011;22654;51.054;3.654;2022-11-15T16:57:04;6.30;;;4.40;;
36659;SDS011;22654;51.054;3.654;2022-11-15T16:59:30;5.85;;;4.78;;
36659;SDS011;22654;51.054;3.654;2022-11-15T17:01:57;6.03;;;4.00;;
36659;SDS011;22654;51.054;3.654;2022-11-15T17:04:23;4.60;;;4.18;;
36659;SDS011;22654;51.054;3.654;2022-11-15T17:06:49;5.10;;;4.63;;
36659;SDS011;22654;51.054;3.654;2022-11-15T17:09:18;6.13;;;4.40;;
36659;SDS011;22654;51.054;3.654;2022-11-15T17:11:47;5.45;;;4.35;;
36659;SDS011;22654;51.054;3.654;2022-11-15T17:14:14;5.18;;;4.68;;
36659;SDS011;22654;51.054;3.654;2022-11-15T17:16:40;5.70;;;5.20;;
36659;SDS011;22654;51.054;3.654;2022-11-15T17:19:12;5.55;;;5.03;;
36659;SDS011;22654;51.054;3.654;2022-11-15T17:21:39;5.63;;;5.03;;
36659;SDS011;22654;51.054;3.654;2022-11-15T17:24:05;8.15;;;5.75;;
36659;SDS011;22654;51.054;3.654;2022-11-15T17:26:32;5.43;;;4.90;;
36659;SDS011;22654;51.054;3.654;2022-11-15T17:28:57;5.72;;;5.28;;
36659;SDS011;22654;51.054;3.654;2022-11-15T17:31:25;5.30;;;4.78;;
36659;SDS011;22654;51.054;3.654;2022-11-15T17:33:51;7.03;;;5.35;;
36659;SDS011;22654;51.054;3.654;2022-11-15T17:36:17;6.03;;;5.07;;
36659;SDS011;22654;51.054;3.654;2022-11-15T17:38:43;9.52;;;6.28;;
36659;SDS011;22654;51.054;3.654;2022-11-15T17:41:14;5.72;;;5.20;;
36659;SDS011;22654;51.054;3.654;2022-11-15T17:43:41;7.68;;;6.00;;
36659;SDS011;22654;51.054;3.654;2022-11-15T17:46:11;9.70;;;7.22;;
36659;SDS011;22654;51.054;3.654;2022-11-15T17:48:38;7.38;;;6.43;;
36659;SDS011;22654;51.054;3.654;2022-11-15T17:51:05;7.80;;;7.00;;
36659;SDS011;22654;51.054;3.654;2022-11-15T17:53:33;89.43;;;81.60;;
36659;SDS011;22654;51.054;3.654;2022-11-15T17:56:02;8.32;;;7.53;;
36659;SDS011;22654;51.054;3.654;2022-11-15T17:58:29;7.35;;;6.55;;
36659;SDS011;22654;51.054;3.654;2022-11-15T18:01:03;6.40;;;5.85;;
36659;SDS011;22654;51.054;3.654;2022-11-15T18:03:31;8.32;;;6.82;;
36659;SDS011;22654;51.054;3.654;2022-11-15T18:05:58;7.68;;;6.97;;
36659;SDS011;22654;51.054;3.654;2022-11-15T18:08:24;8.45;;;7.57;;
36659;SDS011;22654;51.054;3.654;2022-11-15T18:10:50;7.82;;;7.03;;